createdAt,value
2023-05-16T05:01:10.432Z,11.52
2023-05-16T05:02:10.429Z,3.39
2023-05-16T05:03:12.914Z,3.31
2023-05-16T05:04:13.207Z,3.07
2023-05-16T05:05:10.424Z,2.59
2023-05-16T05:06:10.289Z,3.39
2023-05-16T05:07:10.290Z,2.95
2023-05-16T05:08:10.288Z,2.55
2023-05-16T05:09:10.278Z,2.97
2023-05-16T05:10:10.280Z,3.10
2023-05-16T05:11:10.280Z,2.41
2023-05-16T05:12:10.250Z,2.87
2023-05-16T05:13:10.265Z,2.71
2023-05-16T05:14:10.249Z,2.56
2023-05-16T05:15:10.259Z,2.70
2023-05-16T05:16:10.232Z,2.74
2023-05-16T05:17:10.251Z,3.11
2023-05-16T05:18:10.397Z,2.64
2023-05-16T05:19:10.217Z,2.96
2023-05-16T05:20:10.217Z,2.80
2023-05-16T05:21:10.255Z,2.70
2023-05-16T05:22:10.222Z,2.80
2023-05-16T05:23:10.188Z,2.70
2023-05-16T05:24:10.191Z,2.98
2023-05-16T05:25:10.194Z,2.75
2023-05-16T05:26:10.167Z,2.60
2023-05-16T05:27:10.170Z,2.43
2023-05-16T05:28:10.188Z,2.66
2023-05-16T05:29:10.155Z,2.77
2023-05-16T05:30:10.218Z,2.55
2023-05-16T05:31:10.150Z,2.73
2023-05-16T05:32:10.228Z,3.27
2023-05-16T05:33:10.276Z,2.36
2023-05-16T05:34:10.111Z,2.39
2023-05-16T05:35:10.117Z,2.64
2023-05-16T05:36:10.110Z,2.65
2023-05-16T05:37:10.110Z,2.75
2023-05-16T05:38:10.133Z,2.75
2023-05-16T05:39:10.080Z,2.99
2023-05-16T05:40:10.049Z,3.02
2023-05-16T05:41:10.123Z,2.97
2023-05-16T05:42:10.051Z,2.81
2023-05-16T05:43:10.072Z,4.04
2023-05-16T05:44:10.015Z,3.40
2023-05-16T05:45:10.120Z,3.12
2023-05-16T05:46:10.117Z,3.14
2023-05-16T05:47:10.015Z,3.91
2023-05-16T05:48:10.096Z,3.97
2023-05-16T05:49:10.032Z,4.25
2023-05-16T05:50:10.036Z,4.05
2023-05-16T05:51:10.095Z,4.05
2023-05-16T05:52:10.077Z,4.21
2023-05-16T05:53:10.083Z,4.64
2023-05-16T05:54:10.161Z,4.12
2023-05-16T05:55:10.142Z,4.23
2023-05-16T05:56:10.171Z,3.34
2023-05-16T05:57:10.140Z,3.83
2023-05-16T05:58:10.200Z,3.26
2023-05-16T05:59:10.207Z,3.78
2023-05-16T06:00:10.187Z,4.01
2023-05-16T06:01:10.222Z,3.69
2023-05-16T06:02:10.236Z,3.51
2023-05-16T06:03:10.248Z,3.53
2023-05-16T06:04:10.277Z,3.73
2023-05-16T06:05:10.267Z,3.34
2023-05-16T06:06:10.299Z,3.40
2023-05-16T06:07:10.225Z,3.89
2023-05-16T06:08:10.272Z,3.03
2023-05-16T06:09:10.274Z,3.94
2023-05-16T06:10:10.252Z,3.58
2023-05-16T06:11:10.270Z,3.75
2023-05-16T06:12:10.283Z,3.40
2023-05-16T06:13:10.284Z,3.45
2023-05-16T06:14:10.315Z,3.53
2023-05-16T06:15:10.349Z,3.24
2023-05-16T06:16:10.318Z,4.24
2023-05-16T06:17:10.503Z,2.90
2023-05-16T06:18:10.542Z,4.11
2023-05-16T06:19:10.370Z,3.64
2023-05-16T06:20:10.409Z,3.06
2023-05-16T06:21:10.331Z,3.28
2023-05-16T06:22:10.362Z,3.06
2023-05-16T06:23:10.394Z,3.38
2023-05-16T06:24:10.363Z,3.32
2023-05-16T06:25:10.387Z,3.44
2023-05-16T06:26:10.376Z,3.76
2023-05-16T06:27:10.421Z,3.08
2023-05-16T06:28:10.437Z,3.28
2023-05-16T06:29:10.384Z,3.73
2023-05-16T06:30:10.366Z,3.15
2023-05-16T06:31:10.357Z,3.51
2023-05-16T06:32:13.105Z,3.45
2023-05-16T06:33:10.442Z,3.84
2023-05-16T06:34:10.364Z,3.23
2023-05-16T06:35:10.347Z,3.32
2023-05-16T06:36:10.357Z,3.14
2023-05-16T06:37:10.363Z,2.69
2023-05-16T06:38:10.331Z,3.09
2023-05-16T06:39:10.303Z,3.07
2023-05-16T06:40:10.305Z,2.92
2023-05-16T06:41:10.282Z,3.78
2023-05-16T06:42:10.329Z,2.89
2023-05-16T06:43:10.307Z,3.16
2023-05-16T06:44:10.287Z,3.30
2023-05-16T06:45:10.295Z,4.30
2023-05-16T06:46:10.296Z,2.99
2023-05-16T06:47:10.272Z,2.99
2023-05-16T06:48:10.315Z,3.38
2023-05-16T06:49:10.231Z,2.94
2023-05-16T06:50:10.255Z,3.32
2023-05-16T06:51:10.250Z,3.53
2023-05-16T06:52:10.214Z,2.95
2023-05-16T06:53:10.243Z,3.47
2023-05-16T06:54:10.210Z,3.05
2023-05-16T06:55:10.192Z,3.21
2023-05-16T06:56:10.801Z,3.12
2023-05-16T06:57:10.424Z,3.27
2023-05-16T06:58:10.193Z,3.15
2023-05-16T06:59:10.162Z,2.98
2023-05-16T07:00:10.148Z,2.64
2023-05-16T07:01:10.197Z,3.00
2023-05-16T07:02:10.177Z,2.90
2023-05-16T07:03:10.278Z,3.28
2023-05-16T07:04:10.227Z,2.97
2023-05-16T07:05:10.148Z,3.07
2023-05-16T07:06:10.102Z,3.00
2023-05-16T07:07:10.088Z,3.13
2023-05-16T07:08:10.164Z,3.23
2023-05-16T07:09:10.253Z,3.17
2023-05-16T07:10:10.117Z,3.20
2023-05-16T07:11:10.065Z,3.11
2023-05-16T07:12:10.087Z,3.15
2023-05-16T07:13:10.093Z,3.08
2023-05-16T07:14:10.050Z,3.30
2023-05-16T07:15:10.094Z,3.35
2023-05-16T07:16:10.095Z,3.04
2023-05-16T07:17:10.084Z,2.99
2023-05-16T07:18:10.069Z,3.27
2023-05-16T07:19:10.112Z,2.70
2023-05-16T07:20:10.053Z,3.12
2023-05-16T07:21:10.071Z,3.15
2023-05-16T07:22:10.059Z,3.41
2023-05-16T07:23:09.996Z,3.08
2023-05-16T07:24:10.017Z,3.40
2023-05-16T07:25:10.011Z,4.12
2023-05-16T07:26:09.997Z,4.30
2023-05-16T07:27:10.032Z,3.87
2023-05-16T07:28:09.999Z,3.62
2023-05-16T07:29:10.051Z,3.98
2023-05-16T07:30:09.980Z,3.89
2023-05-16T07:31:09.978Z,4.01
2023-05-16T07:32:10.018Z,4.13
2023-05-16T07:33:10.046Z,3.53
2023-05-16T07:34:09.938Z,4.51
2023-05-16T07:35:09.965Z,4.72
2023-05-16T07:37:10.910Z,4.64
2023-05-16T07:38:09.924Z,4.19
2023-05-16T07:39:09.896Z,4.92
2023-05-16T07:40:09.939Z,4.60
2023-05-16T07:41:10.004Z,4.15
2023-05-16T07:42:09.845Z,4.67
2023-05-16T07:43:09.889Z,4.15
2023-05-16T07:44:09.860Z,3.59
2023-05-16T07:45:09.883Z,4.07
2023-05-16T07:46:09.920Z,3.56
2023-05-16T07:47:09.828Z,3.72
2023-05-16T07:48:09.924Z,3.73
2023-05-16T07:49:09.872Z,3.42
2023-05-16T07:50:09.813Z,3.19
2023-05-16T07:51:09.801Z,3.41
2023-05-16T07:52:09.826Z,3.37
2023-05-16T07:53:09.842Z,3.55
2023-05-16T07:54:09.898Z,3.65
2023-05-16T07:55:10.075Z,3.24
2023-05-16T07:56:09.939Z,3.44
2023-05-16T07:57:10.006Z,3.21
2023-05-16T07:58:10.025Z,3.40
2023-05-16T07:59:10.087Z,3.70
2023-05-16T08:00:10.061Z,3.23
2023-05-16T08:01:10.092Z,3.21
2023-05-16T08:02:10.108Z,2.94
2023-05-16T08:03:10.190Z,3.36
2023-05-16T08:04:10.071Z,3.02
2023-05-16T08:05:10.148Z,3.39
2023-05-16T08:06:10.163Z,2.67
2023-05-16T08:07:10.105Z,2.53
2023-05-16T08:08:10.114Z,3.02
2023-05-16T08:09:10.091Z,3.17
2023-05-16T08:10:12.549Z,3.19
2023-05-16T08:11:10.110Z,3.09
2023-05-16T08:12:10.084Z,3.83
2023-05-16T08:13:10.086Z,3.08
2023-05-16T08:14:10.091Z,3.25
2023-05-16T08:15:10.055Z,3.06
2023-05-16T08:16:10.064Z,3.37
2023-05-16T08:17:10.058Z,3.59
2023-05-16T08:18:10.097Z,3.50
2023-05-16T08:19:10.121Z,3.19
2023-05-16T08:20:10.075Z,2.94
2023-05-16T08:21:09.999Z,3.10
2023-05-16T08:22:10.004Z,3.11
2023-05-16T08:23:10.053Z,3.45
2023-05-16T08:24:09.975Z,3.41
2023-05-16T08:25:10.016Z,2.94
2023-05-16T08:26:10.002Z,3.43
2023-05-16T08:27:09.985Z,3.19
2023-05-16T08:28:09.999Z,3.79
2023-05-16T08:29:09.959Z,3.67
2023-05-16T08:30:10.139Z,3.90
2023-05-16T08:31:09.996Z,4.30
2023-05-16T08:32:09.957Z,3.69
2023-05-16T08:33:09.990Z,4.34
2023-05-16T08:34:09.907Z,3.84
2023-05-16T08:35:09.937Z,3.72
2023-05-16T08:36:09.988Z,3.74
2023-05-16T08:37:09.895Z,3.55
2023-05-16T08:38:09.866Z,4.22
2023-05-16T08:39:09.946Z,3.70
2023-05-16T08:40:09.908Z,3.77
2023-05-16T08:41:09.910Z,3.70
2023-05-16T08:42:09.907Z,4.14
2023-05-16T08:43:09.991Z,3.72
2023-05-16T08:44:09.871Z,3.42
2023-05-16T08:45:09.883Z,3.47
2023-05-16T08:46:09.835Z,3.62
2023-05-16T08:47:09.960Z,3.93
2023-05-16T08:48:10.637Z,3.64
2023-05-16T08:49:09.831Z,3.63
2023-05-16T08:50:09.811Z,3.90
2023-05-16T08:51:09.795Z,3.31
2023-05-16T08:52:09.861Z,3.51
2023-05-16T08:53:09.808Z,3.40
2023-05-16T08:54:09.820Z,4.14
2023-05-16T08:55:11.712Z,3.83
2023-05-16T08:56:09.792Z,4.13
2023-05-16T08:57:09.784Z,3.65
2023-05-16T08:58:09.794Z,4.07
2023-05-16T08:59:09.812Z,3.80
2023-05-16T09:00:09.920Z,3.90
2023-05-16T09:01:10.073Z,4.11
2023-05-16T09:02:10.016Z,3.66
2023-05-16T09:03:10.112Z,4.37
2023-05-16T09:04:10.158Z,4.21
2023-05-16T09:05:10.152Z,4.19
2023-05-16T09:06:10.157Z,4.13
2023-05-16T09:07:10.248Z,4.29
2023-05-16T09:08:10.361Z,4.32
2023-05-16T09:09:10.429Z,4.47
2023-05-16T09:10:10.502Z,4.21
2023-05-16T09:11:10.458Z,4.24
2023-05-16T09:12:10.467Z,4.17
2023-05-16T09:13:10.437Z,3.96
2023-05-16T09:14:10.485Z,5.00
2023-05-16T09:15:10.474Z,4.52
2023-05-16T09:16:10.483Z,4.44
2023-05-16T09:17:12.470Z,4.73
2023-05-16T09:18:10.521Z,5.18
2023-05-16T09:19:10.503Z,3.54
2023-05-16T09:20:10.501Z,3.90
2023-05-16T09:21:10.483Z,4.57
2023-05-16T09:22:10.471Z,4.28
2023-05-16T09:23:10.447Z,8.50
2023-05-16T09:24:10.455Z,4.85
2023-05-16T09:25:18.372Z,4.59
2023-05-16T09:26:11.589Z,4.52
2023-05-16T09:27:10.570Z,4.74
2023-05-16T09:28:10.580Z,4.12
2023-05-16T09:29:10.544Z,4.54
2023-05-16T09:30:10.545Z,4.13
2023-05-16T09:31:11.286Z,4.21
2023-05-16T09:32:10.531Z,4.26
2023-05-16T09:33:10.635Z,4.35
2023-05-16T09:34:10.560Z,4.75
2023-05-16T09:35:10.522Z,5.05
2023-05-16T09:36:10.605Z,4.91
2023-05-16T09:37:10.649Z,4.00
2023-05-16T09:38:10.679Z,4.58
2023-05-16T09:39:10.753Z,4.87
2023-05-16T09:40:10.813Z,4.71
2023-05-16T09:41:10.894Z,4.36
2023-05-16T09:42:11.054Z,4.58
2023-05-16T09:43:11.008Z,5.13
2023-05-16T09:44:11.382Z,4.49
2023-05-16T09:45:11.098Z,4.80
2023-05-16T09:46:11.237Z,4.67
2023-05-16T09:47:11.264Z,3.40
2023-05-16T09:48:11.318Z,4.15
2023-05-16T09:49:11.353Z,4.03
2023-05-16T09:50:11.418Z,4.06
2023-05-16T09:51:11.482Z,3.99
2023-05-16T09:52:11.511Z,3.46
2023-05-16T09:53:11.601Z,4.12
2023-05-16T09:54:11.649Z,4.84
2023-05-16T09:55:11.688Z,4.42
2023-05-16T09:56:11.791Z,5.03
2023-05-16T09:57:11.803Z,4.73
2023-05-16T09:58:11.926Z,4.61
2023-05-16T09:59:12.046Z,4.40
2023-05-16T10:00:12.001Z,4.42
2023-05-16T10:01:12.082Z,4.08
2023-05-16T10:02:12.199Z,4.53
2023-05-16T10:03:12.206Z,4.32
2023-05-16T10:04:12.346Z,4.45
2023-05-16T10:05:12.333Z,3.87
2023-05-16T10:06:12.859Z,4.18
2023-05-16T10:07:12.473Z,4.17
2023-05-16T10:08:12.463Z,4.27
2023-05-16T10:09:12.516Z,3.97
2023-05-16T10:10:12.610Z,4.04
2023-05-16T10:11:12.595Z,3.98
2023-05-16T10:12:12.710Z,4.08
2023-05-16T10:13:12.739Z,4.29
2023-05-16T10:14:12.789Z,3.87
2023-05-16T10:15:12.860Z,4.05
2023-05-16T10:16:12.999Z,3.64
2023-05-16T10:17:12.946Z,3.93
2023-05-16T10:18:13.065Z,4.30
2023-05-16T10:19:13.111Z,4.62
2023-05-16T10:20:13.095Z,4.15
2023-05-16T10:21:13.189Z,4.32
2023-05-16T10:22:13.270Z,5.03
2023-05-16T10:23:13.307Z,4.70
2023-05-16T10:24:13.333Z,4.22
2023-05-16T10:25:13.463Z,4.51
2023-05-16T10:26:13.494Z,4.32
2023-05-16T10:27:13.596Z,4.44
2023-05-16T10:28:13.632Z,3.79
2023-05-16T10:29:13.709Z,3.93
2023-05-16T10:30:13.718Z,4.32
2023-05-16T10:31:13.817Z,3.46
2023-05-16T10:32:13.983Z,3.94
2023-05-16T10:33:13.986Z,3.99
2023-05-16T10:34:13.941Z,2.73
2023-05-16T10:35:13.997Z,3.66
2023-05-16T10:36:14.071Z,2.96
2023-05-16T10:37:14.195Z,3.42
2023-05-16T10:38:14.163Z,3.25
2023-05-16T10:39:14.224Z,3.05
2023-05-16T10:40:14.290Z,3.21
2023-05-16T10:41:14.352Z,3.47
2023-05-16T10:42:14.393Z,3.10
2023-05-16T10:43:14.479Z,3.82
2023-05-16T10:44:14.533Z,2.61
2023-05-16T10:45:14.556Z,3.53
2023-05-16T10:46:14.918Z,3.06
2023-05-16T10:47:14.744Z,3.25
2023-05-16T10:48:14.820Z,3.50
2023-05-16T10:49:14.811Z,4.06
2023-05-16T10:50:14.886Z,3.23
2023-05-16T10:51:14.971Z,3.31
2023-05-16T10:52:15.088Z,3.38
2023-05-16T10:53:15.139Z,3.12
2023-05-16T10:54:15.145Z,4.29
2023-05-16T10:55:15.185Z,3.38
2023-05-16T10:56:15.273Z,3.55
2023-05-16T10:57:15.301Z,3.34
2023-05-16T10:58:15.315Z,3.47
2023-05-16T10:59:15.397Z,3.12
2023-05-16T11:00:15.453Z,3.03
2023-05-16T11:01:15.554Z,3.33
2023-05-16T11:02:15.546Z,2.62
2023-05-16T11:03:15.721Z,2.87
2023-05-16T11:04:15.690Z,3.68
2023-05-16T11:05:15.780Z,3.08
2023-05-16T11:06:16.386Z,2.93
2023-05-16T11:07:15.859Z,3.38
2023-05-16T11:08:15.892Z,3.50
2023-05-16T11:09:15.902Z,4.21
2023-05-16T11:10:15.924Z,3.27
2023-05-16T11:11:15.919Z,3.16
2023-05-16T11:12:15.969Z,3.10
2023-05-16T11:13:15.948Z,3.21
2023-05-16T11:14:15.959Z,2.86
2023-05-16T11:15:15.998Z,3.61
2023-05-16T11:16:16.173Z,2.98
2023-05-16T11:17:16.287Z,2.67
2023-05-16T11:18:16.126Z,3.52
2023-05-16T11:19:16.160Z,3.19
2023-05-16T11:20:16.124Z,3.37
2023-05-16T11:21:16.164Z,3.46
2023-05-16T11:22:16.301Z,3.74
2023-05-16T11:23:16.212Z,3.46
2023-05-16T11:24:16.284Z,3.33
2023-05-16T11:25:16.421Z,2.99
2023-05-16T11:26:16.258Z,3.81
2023-05-16T11:27:16.313Z,3.31
2023-05-16T11:28:16.326Z,3.25
2023-05-16T11:29:16.292Z,3.36
2023-05-16T11:30:16.300Z,3.74
2023-05-16T11:31:16.366Z,3.21
2023-05-16T11:32:16.324Z,3.81
2023-05-16T11:33:16.451Z,3.41
2023-05-16T11:34:16.398Z,2.75
2023-05-16T11:35:16.420Z,3.17
2023-05-16T11:36:16.808Z,3.21
2023-05-16T11:37:16.540Z,3.12
2023-05-16T11:38:16.568Z,3.60
2023-05-16T11:39:16.628Z,2.94
2023-05-16T11:40:16.618Z,3.17
2023-05-16T11:41:16.639Z,3.22
2023-05-16T11:42:16.661Z,3.61
2023-05-16T11:43:16.698Z,3.62
2023-05-16T11:44:16.728Z,3.07
2023-05-16T11:45:16.845Z,3.87
2023-05-16T11:46:17.036Z,3.87
2023-05-16T11:47:16.847Z,2.94
2023-05-16T11:48:28.693Z,3.37
2023-05-16T11:49:17.915Z,3.32
2023-05-16T11:50:16.881Z,3.60
2023-05-16T11:51:16.884Z,3.79
2023-05-16T11:52:16.845Z,3.16
2023-05-16T11:53:16.844Z,3.26
2023-05-16T11:54:16.866Z,3.69
2023-05-16T11:55:28.295Z,3.55
2023-05-16T11:56:17.884Z,4.16
2023-05-16T11:57:16.823Z,3.51
2023-05-16T11:58:16.795Z,4.01
2023-05-16T11:59:16.797Z,3.29
2023-05-16T12:00:16.871Z,3.23
2023-05-16T12:01:16.825Z,4.08
2023-05-16T12:02:16.885Z,3.76
2023-05-16T12:03:16.965Z,3.55
2023-05-16T12:04:17.062Z,4.05
2023-05-16T12:05:16.877Z,3.90
2023-05-16T12:06:16.948Z,4.33
2023-05-16T12:07:17.001Z,3.29
2023-05-16T12:08:17.088Z,3.55
2023-05-16T12:09:18.552Z,4.12
2023-05-16T12:10:17.206Z,3.03
2023-05-16T12:11:17.213Z,2.77
2023-05-16T12:12:17.297Z,3.84
2023-05-16T12:13:18.265Z,3.41
2023-05-16T12:14:17.532Z,2.76
2023-05-16T12:15:17.579Z,3.42
2023-05-16T12:16:17.740Z,3.12
2023-05-16T12:17:17.709Z,3.31
2023-05-16T12:18:17.775Z,3.10
2023-05-16T12:19:17.782Z,3.21
2023-05-16T12:20:17.811Z,3.04
2023-05-16T12:21:17.842Z,3.22
2023-05-16T12:22:17.895Z,3.14
2023-05-16T12:23:17.960Z,3.23
2023-05-16T12:24:18.008Z,3.13
2023-05-16T12:25:18.074Z,3.05
2023-05-16T12:26:18.109Z,3.37
2023-05-16T12:27:18.139Z,3.21
2023-05-16T12:28:18.216Z,3.05
2023-05-16T12:29:18.406Z,2.60
2023-05-16T12:30:18.334Z,2.84
2023-05-16T12:31:30.001Z,2.81
2023-05-16T12:32:19.401Z,3.26
2023-05-16T12:33:18.363Z,3.40
2023-05-16T12:34:18.290Z,3.07
2023-05-16T12:35:18.296Z,2.96
2023-05-16T12:36:18.302Z,3.33
2023-05-16T12:37:18.330Z,3.50
2023-05-16T12:38:18.300Z,3.01
2023-05-16T12:39:18.319Z,2.72
2023-05-16T12:40:18.293Z,3.04
2023-05-16T12:41:18.303Z,2.57
2023-05-16T12:42:18.267Z,2.76
2023-05-16T12:43:18.233Z,2.96
2023-05-16T12:44:18.243Z,2.97
2023-05-16T12:45:18.267Z,2.87
2023-05-16T12:46:18.269Z,2.75
2023-05-16T12:47:18.273Z,2.72
2023-05-16T12:48:18.312Z,2.72
2023-05-16T12:49:18.194Z,2.79
2023-05-16T12:50:18.235Z,3.20
2023-05-16T12:51:18.188Z,3.01
2023-05-16T12:52:18.199Z,2.90
2023-05-16T12:53:18.179Z,2.58
2023-05-16T12:54:18.187Z,2.59
2023-05-16T12:55:18.147Z,2.76
2023-05-16T12:56:18.154Z,2.56
2023-05-16T12:57:18.577Z,3.28
2023-05-16T12:58:22.869Z,2.90
2023-05-16T12:59:18.376Z,3.04
2023-05-16T13:00:18.326Z,2.57
2023-05-16T13:01:18.991Z,2.68
2023-05-16T13:02:18.519Z,3.11
2023-05-16T13:03:18.421Z,2.87
2023-05-16T13:04:18.476Z,3.20
2023-05-16T13:05:18.309Z,2.57
2023-05-16T13:06:18.346Z,3.10
2023-05-16T13:07:18.319Z,2.63
2023-05-16T13:08:18.303Z,2.75
2023-05-16T13:09:18.320Z,2.47
2023-05-16T13:10:18.289Z,2.69
2023-05-16T13:11:18.314Z,3.23
2023-05-16T13:12:18.289Z,2.60
2023-05-16T13:13:28.696Z,2.47
2023-05-16T13:14:19.288Z,2.69
2023-05-16T13:15:18.250Z,2.83
2023-05-16T13:16:18.262Z,2.66
2023-05-16T13:17:18.351Z,2.71
2023-05-16T13:18:18.368Z,2.94
2023-05-16T13:19:18.340Z,3.17
2023-05-16T13:20:18.232Z,2.77
2023-05-16T13:21:18.243Z,2.99
2023-05-16T13:22:18.226Z,2.85
2023-05-16T13:23:18.225Z,3.04
2023-05-16T13:24:18.947Z,2.77
2023-05-16T13:25:18.216Z,2.69
2023-05-16T13:26:18.176Z,2.48
2023-05-16T13:27:18.206Z,2.83
2023-05-16T13:28:18.165Z,2.67
2023-05-16T13:29:18.181Z,2.40
2023-05-16T13:30:18.154Z,2.61
2023-05-16T13:31:18.266Z,3.05
2023-05-16T13:32:18.164Z,2.92
2023-05-16T13:33:18.365Z,3.16
2023-05-16T13:34:18.291Z,3.10
2023-05-16T13:35:18.260Z,2.87
2023-05-16T13:36:18.273Z,2.71
2023-05-16T13:37:18.288Z,2.70
2023-05-16T13:38:18.403Z,3.03
2023-05-16T13:39:18.397Z,2.76
2023-05-16T13:40:18.433Z,2.88
2023-05-16T13:41:18.437Z,2.76
2023-05-16T13:42:18.476Z,2.43
2023-05-16T13:43:18.437Z,2.67
2023-05-16T13:44:18.530Z,2.90
2023-05-16T13:45:18.512Z,2.82
2023-05-16T13:46:18.612Z,2.97
2023-05-16T13:47:18.666Z,3.20
2023-05-16T13:48:18.636Z,2.72
2023-05-16T13:49:18.737Z,2.98
2023-05-16T13:50:18.687Z,3.14
2023-05-16T13:51:18.691Z,3.23
2023-05-16T13:52:18.703Z,2.97
2023-05-16T13:53:18.771Z,2.67
2023-05-16T13:54:18.772Z,2.75
2023-05-16T13:55:18.809Z,2.63
2023-05-16T13:56:18.835Z,2.71
2023-05-16T13:57:18.831Z,3.28
2023-05-16T13:58:18.884Z,3.08
2023-05-16T13:59:31.827Z,2.90
2023-05-16T14:01:19.958Z,3.42
2023-05-16T14:02:18.912Z,2.88
2023-05-16T14:03:18.970Z,2.28
2023-05-16T14:04:18.932Z,2.22
2023-05-16T14:05:18.990Z,2.76
2023-05-16T14:06:18.831Z,2.87
2023-05-16T14:07:18.873Z,2.74
2023-05-16T14:08:18.805Z,2.49
2023-05-16T14:09:18.822Z,2.73
2023-05-16T14:10:18.847Z,2.97
2023-05-16T14:11:18.795Z,2.81
2023-05-16T14:12:18.764Z,2.83
2023-05-16T14:13:18.792Z,2.59
2023-05-16T14:14:18.801Z,2.55
2023-05-16T14:15:18.781Z,3.42
2023-05-16T14:16:18.831Z,2.39
2023-05-16T14:17:18.740Z,2.48
2023-05-16T14:18:18.764Z,2.66
2023-05-16T14:19:19.741Z,2.50
2023-05-16T14:20:18.707Z,2.34
2023-05-16T14:21:18.886Z,2.50
2023-05-16T14:22:18.710Z,2.47
2023-05-16T14:23:18.721Z,2.54
2023-05-16T14:24:18.724Z,2.63
2023-05-16T14:25:18.714Z,2.13
2023-05-16T14:26:18.680Z,2.53
2023-05-16T14:27:18.694Z,2.48
2023-05-16T14:28:18.672Z,2.93
2023-05-16T14:29:18.682Z,1.99
2023-05-16T14:30:18.668Z,2.67
2023-05-16T14:31:18.768Z,2.42
2023-05-16T14:32:18.685Z,2.89
2023-05-16T14:33:18.746Z,2.21
2023-05-16T14:34:18.716Z,2.50
2023-05-16T14:35:18.622Z,3.16
2023-05-16T14:36:18.625Z,2.47
2023-05-16T14:37:18.725Z,3.01
2023-05-16T14:38:18.654Z,2.69
2023-05-16T14:39:18.591Z,2.59
2023-05-16T14:40:18.621Z,2.57
2023-05-16T14:41:18.584Z,2.70
2023-05-16T14:42:18.593Z,2.73
2023-05-16T14:43:18.593Z,2.28
2023-05-16T14:44:18.533Z,2.71
2023-05-16T14:45:18.591Z,2.73
2023-05-16T14:46:18.607Z,2.57
2023-05-16T14:47:18.560Z,2.59
2023-05-16T14:48:18.582Z,2.30
2023-05-16T14:49:18.586Z,2.92
2023-05-16T14:50:18.628Z,2.79
2023-05-16T14:51:18.636Z,2.76
2023-05-16T14:52:18.661Z,3.12
2023-05-16T14:53:18.775Z,2.71
2023-05-16T14:54:18.709Z,2.85
2023-05-16T14:55:19.563Z,2.33
2023-05-16T14:56:18.779Z,2.57
2023-05-16T14:57:18.815Z,3.04
2023-05-16T14:58:18.842Z,2.46
2023-05-16T14:59:18.814Z,2.81
2023-05-16T15:00:18.837Z,2.74
2023-05-16T15:01:18.917Z,2.91
2023-05-16T15:02:18.947Z,2.68
2023-05-16T15:03:19.011Z,2.50
2023-05-16T15:04:19.036Z,2.78
2023-05-16T15:05:19.200Z,3.16
2023-05-16T15:06:19.093Z,2.48
2023-05-16T15:07:19.155Z,2.47
2023-05-16T15:08:19.220Z,2.46
2023-05-16T15:09:19.417Z,2.81
2023-05-16T15:10:19.260Z,2.55
2023-05-16T15:11:19.338Z,2.63
2023-05-16T15:12:19.393Z,2.86
2023-05-16T15:13:19.421Z,3.15
2023-05-16T15:14:19.494Z,2.60
2023-05-16T15:15:19.554Z,2.78
2023-05-16T15:16:19.725Z,2.60
2023-05-16T15:17:19.637Z,2.57
2023-05-16T15:18:19.727Z,3.05
2023-05-16T15:19:19.798Z,2.34
2023-05-16T15:20:21.917Z,2.83
2023-05-16T15:21:19.831Z,3.40
2023-05-16T15:22:19.792Z,3.02
2023-05-16T15:23:19.800Z,3.02
2023-05-16T15:24:19.874Z,2.92
2023-05-16T15:25:19.904Z,2.77
2023-05-16T15:26:19.774Z,2.80
2023-05-16T15:27:19.771Z,3.48
2023-05-16T15:28:21.803Z,3.59
2023-05-16T15:29:19.748Z,3.25
2023-05-16T15:30:19.761Z,3.12
2023-05-16T15:31:19.792Z,3.33
2023-05-16T15:32:19.805Z,3.52
2023-05-16T15:33:19.732Z,3.78
2023-05-16T15:34:19.728Z,3.37
2023-05-16T15:35:19.755Z,4.09
2023-05-16T15:36:19.731Z,3.92
2023-05-16T15:37:19.708Z,3.79
2023-05-16T15:38:19.723Z,3.70
2023-05-16T15:39:19.685Z,4.76
2023-05-16T15:40:23.355Z,4.20
2023-05-16T15:41:32.070Z,4.90
2023-05-16T15:42:20.691Z,4.86
2023-05-16T15:43:19.666Z,4.43
2023-05-16T15:44:19.679Z,4.98
2023-05-16T15:45:19.662Z,4.51
2023-05-16T15:46:19.764Z,4.97
2023-05-16T15:47:19.692Z,4.17
2023-05-16T15:48:19.712Z,4.66
2023-05-16T15:49:19.636Z,4.54
2023-05-16T15:50:19.644Z,4.89
2023-05-16T15:51:19.620Z,4.76
2023-05-16T15:52:22.388Z,4.89
2023-05-16T15:53:19.628Z,4.90
2023-05-16T15:54:19.589Z,5.36
2023-05-16T15:55:19.621Z,5.22
2023-05-16T15:56:19.598Z,4.82
2023-05-16T15:57:19.684Z,5.00
2023-05-16T15:58:21.922Z,5.02
2023-05-16T15:59:19.600Z,5.05
2023-05-16T16:00:19.559Z,4.97
2023-05-16T16:01:19.595Z,4.61
2023-05-16T16:02:19.556Z,4.90
2023-05-16T16:03:19.614Z,4.69
2023-05-16T16:04:22.381Z,5.27
2023-05-16T16:05:19.549Z,5.64
2023-05-16T16:06:19.540Z,5.62
2023-05-16T16:07:19.513Z,5.09
2023-05-16T16:08:19.510Z,4.60
2023-05-16T16:09:19.524Z,5.30
2023-05-16T16:10:19.989Z,5.08
2023-05-16T16:11:19.553Z,4.64
2023-05-16T16:12:19.555Z,4.54
2023-05-16T16:13:19.784Z,4.76
2023-05-16T16:14:19.597Z,5.65
2023-05-16T16:15:19.591Z,5.10
2023-05-16T16:16:19.646Z,5.34
2023-05-16T16:17:19.625Z,5.55
2023-05-16T16:18:19.600Z,4.70
2023-05-16T16:19:19.700Z,5.09
2023-05-16T16:20:19.955Z,4.78
2023-05-16T16:21:19.619Z,5.27
2023-05-16T16:22:21.696Z,5.80
2023-05-16T16:23:19.710Z,4.84
2023-05-16T16:24:19.669Z,5.11
2023-05-16T16:25:19.661Z,4.81
2023-05-16T16:26:19.678Z,4.44
2023-05-16T16:27:19.683Z,4.72
2023-05-16T16:28:21.172Z,5.11
2023-05-16T16:29:19.662Z,4.92
2023-05-16T16:30:19.681Z,4.79
2023-05-16T16:31:20.563Z,4.40
2023-05-16T16:32:19.660Z,4.72
2023-05-16T16:33:19.626Z,4.42
2023-05-16T16:34:20.990Z,4.79
2023-05-16T16:35:19.616Z,5.37
2023-05-16T16:36:19.814Z,4.74
2023-05-16T16:37:19.622Z,4.97
2023-05-16T16:38:19.629Z,4.89
2023-05-16T16:39:19.612Z,4.12
2023-05-16T16:40:19.603Z,4.84
2023-05-16T16:41:19.566Z,4.12
2023-05-16T16:42:19.551Z,5.07
2023-05-16T16:43:19.560Z,5.07
2023-05-16T16:44:19.575Z,4.90
2023-05-16T16:45:21.373Z,4.35
2023-05-16T16:46:19.656Z,4.28
2023-05-16T16:47:19.541Z,4.23
2023-05-16T16:48:19.544Z,5.03
2023-05-16T16:49:19.541Z,4.60
2023-05-16T16:50:19.541Z,4.49
2023-05-16T16:51:19.554Z,4.28
2023-05-16T16:52:19.515Z,4.15
2023-05-16T16:53:19.501Z,4.33
2023-05-16T16:54:19.485Z,4.93
2023-05-16T16:55:19.505Z,4.34
2023-05-16T16:56:19.514Z,4.52
2023-05-16T16:57:19.500Z,4.43
2023-05-16T16:58:19.460Z,4.65
2023-05-16T16:59:19.497Z,4.93
2023-05-16T17:00:19.436Z,4.36
